Time;durP1;ratioP1;P1;durP2;ratioP2;P2;SDS_P1;SDS_P2;PMS_P1;PMS_P2;Temp;Humidity;BMP_temperature;BMP_pressure;BME280_temperature;BME280_humidity;BME280_pressure;Samples;Min_cycle;Max_cycle;Signal;HPM_P1;HPM_P2
2022/08/25 07:24:33;;;;;;;23.20;9.10;;;;;;;;;;106924;1292;568781;-33
2022/08/25 07:27:04;;;;;;;15.90;8.30;;;;;;;;;;109779;1262;34865;-33
2022/08/25 07:29:37;;;;;;;16.80;8.70;;;;;;;;;;109884;1257;33315;-33
2022/08/25 07:32:08;;;;;;;15.50;9.30;;;;;;;;;;109009;1257;34757;-33
2022/08/25 07:37:30;;;;;;;18.20;9.00;;;;;;;;;;109163;1264;430792;-33
2022/08/25 07:40:05;;;;;;;18.80;8.50;;;;;;;;;;109760;1264;34902;-32
2022/08/25 07:42:36;;;;;;;19.90;9.80;;;;;;;;;;109777;1257;35227;-33
2022/08/25 07:45:11;;;;;;;17.30;8.40;;;;;;;;;;109747;1263;34415;-33
2022/08/25 07:47:42;;;;;;;17.30;8.70;;;;;;;;;;109755;1264;35071;-32
2022/08/25 07:50:14;;;;;;;22.60;9.40;;;;;;;;;;109723;1264;34993;-32
2022/08/25 07:52:46;;;;;;;17.10;8.60;;;;;;;;;;109779;1264;34694;-32
2022/08/25 07:55:20;;;;;;;17.20;8.80;;;;;;;;;;109741;1264;33843;-33
2022/08/25 07:57:51;;;;;;;16.70;8.60;;;;;;;;;;109781;1263;33396;-32
2022/08/25 08:00:28;;;;;;;17.50;8.90;;;;;;;;;;109746;1258;34983;-33
2022/08/25 08:03:00;;;;;;;15.50;9.00;;;;;;;;;;109775;1264;34918;-32
2022/08/25 08:05:32;;;;;;;13.40;8.10;;;;;;;;;;109756;1264;34889;-32
2022/08/25 08:08:06;;;;;;;16.90;8.50;;;;;;;;;;109769;1264;35530;-31
2022/08/25 08:10:40;;;;;;;16.90;9.30;;;;;;;;;;109764;1264;35093;-32
2022/08/25 08:13:11;;;;;;;14.00;9.40;;;;;;;;;;109784;1264;33842;-33
2022/08/25 08:15:43;;;;;;;19.80;9.00;;;;;;;;;;109759;1264;34880;-33
2022/08/25 08:18:15;;;;;;;18.20;9.10;;;;;;;;;;109776;1264;34815;-33
2022/08/25 08:20:49;;;;;;;17.50;9.10;;;;;;;;;;109745;1263;34749;-35
2022/08/25 08:23:26;;;;;;;16.90;8.80;;;;;;;;;;109764;1264;35444;-34
2022/08/25 08:25:57;;;;;;;14.80;8.30;;;;;;;;;;109772;1264;35187;-32
2022/08/25 08:28:30;;;;;;;13.90;7.80;;;;;;;;;;109734;1264;34268;-33
2022/08/25 08:30:59;;;;;;;;;;;;;;;;;;109769;1257;35078;-32
2022/08/25 08:33:31;;;;;;;16.20;9.00;;;;;;;;;;109752;1264;36009;-33
2022/08/25 08:36:04;;;;;;;15.00;8.30;;;;;;;;;;109716;1264;34896;-33
2022/08/25 08:38:37;;;;;;;13.60;7.80;;;;;;;;;;109712;1264;35128;-33
2022/08/25 08:44:20;;;;;;;16.40;8.80;;;;;;;;;;109719;1263;35089;-34
2022/08/25 08:46:57;;;;;;;17.50;8.70;;;;;;;;;;109777;1258;36137;-33
2022/08/25 08:49:34;;;;;;;13.40;8.40;;;;;;;;;;109752;1257;35132;-33
2022/08/25 08:52:05;;;;;;;16.60;8.60;;;;;;;;;;109744;1264;35401;-33
2022/08/25 08:54:42;;;;;;;13.70;8.70;;;;;;;;;;109686;1264;35192;-33
2022/08/25 08:57:16;;;;;;;14.20;9.10;;;;;;;;;;109773;1264;34837;-34
2022/08/25 08:59:55;;;;;;;14.20;8.70;;;;;;;;;;109762;1264;35101;-33
2022/08/25 09:02:31;;;;;;;16.80;8.90;;;;;;;;;;109752;1264;35234;-33
2022/08/25 09:05:07;;;;;;;16.20;9.00;;;;;;;;;;109738;1264;34966;-33
2022/08/25 09:07:41;;;;;;;12.80;8.30;;;;;;;;;;109708;1264;34738;-31
2022/08/25 09:10:13;;;;;;;15.10;8.80;;;;;;;;;;109729;1264;35164;-32
2022/08/25 09:12:48;;;;;;;12.00;8.40;;;;;;;;;;109743;1257;33064;-32
2022/08/25 09:15:23;;;;;;;14.00;7.70;;;;;;;;;;109761;1257;35848;-31
2022/08/25 09:18:07;;;;;;;13.30;7.70;;;;;;;;;;109743;1264;34851;-33
2022/08/25 09:20:49;;;;;;;13.60;7.80;;;;;;;;;;109732;1264;34809;-32
2022/08/25 09:23:32;;;;;;;13.50;7.80;;;;;;;;;;109725;1257;33941;-34
2022/08/25 09:26:10;;;;;;;11.80;8.10;;;;;;;;;;109745;1264;34885;-34
2022/08/25 09:28:47;;;;;;;11.50;7.70;;;;;;;;;;109741;1257;34829;-34
2022/08/25 09:31:23;;;;;;;14.20;7.90;;;;;;;;;;109971;1264;35595;-31
2022/08/25 09:33:55;;;;;;;13.70;7.40;;;;;;;;;;109964;1263;35019;-30
2022/08/25 09:36:27;;;;;;;11.20;7.50;;;;;;;;;;109989;1263;35176;-32
2022/08/25 09:38:58;;;;;;;13.70;8.10;;;;;;;;;;109991;1257;34701;-31
2022/08/25 09:41:48;;;;;;;13.10;8.00;;;;;;;;;;109967;1263;33463;-31
2022/08/25 09:44:22;;;;;;;16.10;8.10;;;;;;;;;;110007;1263;34271;-31
2022/08/25 09:47:03;;;;;;;13.30;8.20;;;;;;;;;;109967;1264;34920;-31
2022/08/25 09:49:44;;;;;;;14.40;8.40;;;;;;;;;;110006;1256;35126;-31
2022/08/25 09:52:31;;;;;;;15.10;8.30;;;;;;;;;;109995;1255;34299;-31
2022/08/25 09:55:17;;;;;;;17.60;8.60;;;;;;;;;;109956;1255;35207;-31
2022/08/25 09:57:53;;;;;;;12.80;7.60;;;;;;;;;;109934;1263;34796;-31
2022/08/25 10:00:27;;;;;;;14.30;7.90;;;;;;;;;;109983;1263;35269;-35
2022/08/25 10:03:12;;;;;;;14.10;7.80;;;;;;;;;;109982;1264;33726;-34
2022/08/25 10:05:59;;;;;;;12.80;8.40;;;;;;;;;;109976;1263;35115;-31
2022/08/25 10:08:34;;;;;;;14.80;8.30;;;;;;;;;;109973;1263;35237;-34
2022/08/25 10:11:08;;;;;;;14.50;7.80;;;;;;;;;;109941;1263;34685;-33
2022/08/25 10:13:43;;;;;;;13.90;8.00;;;;;;;;;;109973;1263;33379;-31
2022/08/25 10:16:25;;;;;;;14.50;8.30;;;;;;;;;;109970;1260;35143;-31
2022/08/25 10:19:13;;;;;;;16.50;7.70;;;;;;;;;;109957;1263;34854;-33
2022/08/25 10:21:44;;;;;;;15.60;8.50;;;;;;;;;;109961;1263;35449;-33
2022/08/25 10:24:14;;;;;;;16.00;7.90;;;;;;;;;;109953;1263;33518;-33
2022/08/25 10:27:00;;;;;;;19.20;7.90;;;;;;;;;;109828;1263;34876;-32
2022/08/25 10:29:53;;;;;;;14.50;7.90;;;;;;;;;;109858;1257;34406;-32
2022/08/25 10:32:33;;;;;;;16.50;7.90;;;;;;;;;;109950;1257;35141;-30
2022/08/25 10:35:09;;;;;;;17.00;7.90;;;;;;;;;;109956;1257;35159;-31
2022/08/25 10:37:43;;;;;;;15.60;8.20;;;;;;;;;;109939;1263;34740;-31
2022/08/25 10:40:21;;;;;;;15.30;7.80;;;;;;;;;;109967;1263;33380;-32
2022/08/25 10:43:05;;;;;;;15.30;7.80;;;;;;;;;;110456;1248;34734;-32
2022/08/25 10:45:43;;;;;;;13.90;7.80;;;;;;;;;;110425;1256;33411;-32
2022/08/25 10:48:30;;;;;;;13.00;7.80;;;;;;;;;;110421;1254;35115;-34
2022/08/25 10:51:08;;;;;;;13.40;7.30;;;;;;;;;;110422;1257;35022;-32
2022/08/25 10:53:51;;;;;;;11.80;6.90;;;;;;;;;;110465;1256;34837;-32
2022/08/25 10:56:27;;;;;;;12.70;6.90;;;;;;;;;;110443;1256;35128;-32
2022/08/25 10:59:09;;;;;;;12.40;7.40;;;;;;;;;;110431;1256;33412;-34
2022/08/25 11:01:53;;;;;;;14.30;7.10;;;;;;;;;;110426;1248;33329;-35
2022/08/25 11:04:30;;;;;;;11.60;6.80;;;;;;;;;;110434;1257;33938;-33
2022/08/25 11:07:05;;;;;;;10.80;6.40;;;;;;;;;;110449;1256;35080;-33
2022/08/25 11:09:40;;;;;;;14.20;7.40;;;;;;;;;;110490;1256;35122;-35
2022/08/25 11:12:14;;;;;;;12.10;7.00;;;;;;;;;;110438;1248;35011;-33
2022/08/25 11:14:52;;;;;;;12.20;6.30;;;;;;;;;;110462;1248;33605;-33
2022/08/25 11:17:26;;;;;;;14.80;6.90;;;;;;;;;;110432;1257;35153;-35
2022/08/25 11:20:04;;;;;;;11.20;6.20;;;;;;;;;;110423;1256;34850;-31
2022/08/25 11:22:40;;;;;;;11.50;5.30;;;;;;;;;;110437;1251;34437;-33
2022/08/25 11:25:16;;;;;;;13.30;5.50;;;;;;;;;;110446;1256;34894;-33
2022/08/25 11:28:09;;;;;;;11.10;5.00;;;;;;;;;;110428;1256;35119;-32
2022/08/25 11:30:43;;;;;;;9.40;4.60;;;;;;;;;;110449;1256;35017;-32
2022/08/25 11:33:16;;;;;;;9.50;4.50;;;;;;;;;;110460;1256;35031;-32
2022/08/25 11:35:51;;;;;;;10.10;4.30;;;;;;;;;;110473;1248;34981;-32
2022/08/25 11:38:40;;;;;;;7.80;4.30;;;;;;;;;;110453;1257;33291;-32
2022/08/25 11:41:24;;;;;;;9.80;4.60;;;;;;;;;;110460;1248;34931;-33
2022/08/25 11:44:12;;;;;;;9.10;4.40;;;;;;;;;;110428;1256;35104;-32
2022/08/25 11:47:01;;;;;;;10.60;4.00;;;;;;;;;;110419;1256;34380;-32
2022/08/25 11:49:49;;;;;;;11.70;4.00;;;;;;;;;;110411;1256;35059;-32
2022/08/25 11:52:52;;;;;;;6.80;3.60;;;;;;;;;;110220;1249;33822;-31
2022/08/25 11:55:29;;;;;;;7.80;3.50;;;;;;;;;;110407;1248;34889;-32
2022/08/25 11:58:32;;;;;;;9.40;3.80;;;;;;;;;;110404;1256;35482;-32
2022/08/25 12:01:05;;;;;;;8.10;4.30;;;;;;;;;;110399;1256;35152;-32
2022/08/25 12:03:53;;;;;;;9.40;4.40;;;;;;;;;;110425;1256;35424;-32
2022/08/25 12:06:28;;;;;;;8.80;3.90;;;;;;;;;;110420;1256;35490;-32
2022/08/25 12:09:25;;;;;;;6.80;3.60;;;;;;;;;;110407;1253;33338;-33
2022/08/25 12:11:58;;;;;;;8.70;4.40;;;;;;;;;;110415;1256;35676;-32
2022/08/25 12:14:47;;;;;;;9.00;4.50;;;;;;;;;;110444;1256;34960;-32
2022/08/25 12:17:38;;;;;;;8.50;3.90;;;;;;;;;;110434;1256;35037;-32
2022/08/25 12:20:10;;;;;;;5.90;3.60;;;;;;;;;;110416;1253;35167;-32
2022/08/25 12:22:54;;;;;;;9.20;4.00;;;;;;;;;;110435;1256;34694;-32
2022/08/25 12:25:36;;;;;;;5.50;3.10;;;;;;;;;;110427;1256;34290;-29
2022/08/25 12:28:15;;;;;;;6.10;3.20;;;;;;;;;;110361;1256;34965;-32
2022/08/25 12:30:50;;;;;;;8.50;3.60;;;;;;;;;;110390;1247;35508;-30
2022/08/25 12:33:32;;;;;;;6.60;3.80;;;;;;;;;;110418;1256;35429;-27
2022/08/25 12:36:05;;;;;;;7.90;3.70;;;;;;;;;;110432;1253;35318;-28
2022/08/25 12:38:44;;;;;;;6.50;3.50;;;;;;;;;;110402;1256;34954;-29
2022/08/25 12:41:18;;;;;;;6.60;3.30;;;;;;;;;;110398;1256;35026;-29
2022/08/25 12:43:51;;;;;;;7.80;3.60;;;;;;;;;;110456;1248;35391;-30
2022/08/25 12:46:38;;;;;;;;;;;;;;;;;;110448;1247;35074;-34
2022/08/25 12:49:33;;;;;;;6.70;3.70;;;;;;;;;;110443;1250;34725;-34
2022/08/25 12:52:06;;;;;;;5.60;3.20;;;;;;;;;;110514;1250;35014;-34
2022/08/25 12:54:52;;;;;;;6.30;3.30;;;;;;;;;;110420;1256;35759;-34
2022/08/25 12:57:38;;;;;;;5.80;3.10;;;;;;;;;;110452;1247;34206;-33
2022/08/25 13:00:16;;;;;;;6.30;3.20;;;;;;;;;;110444;1256;33285;-34
2022/08/25 13:03:10;;;;;;;6.20;3.40;;;;;;;;;;110439;1256;35221;-34
2022/08/25 13:06:18;;;;;;;5.80;3.70;;;;;;;;;;110522;1256;32335;-35
2022/08/25 13:09:18;;;;;;;7.50;3.20;;;;;;;;;;110529;1256;33336;-35
2022/08/25 13:11:54;;;;;;;7.00;3.40;;;;;;;;;;110460;1256;36207;-35
2022/08/25 13:14:33;;;;;;;6.40;3.20;;;;;;;;;;110431;1247;33259;-34
2022/08/25 13:17:05;;;;;;;7.80;3.50;;;;;;;;;;110448;1251;34850;-35
2022/08/25 13:19:36;;;;;;;5.70;3.40;;;;;;;;;;110455;1256;35091;-35
2022/08/25 13:22:16;;;;;;;7.10;3.50;;;;;;;;;;110454;1250;35124;-34
2022/08/25 13:24:49;;;;;;;6.20;3.60;;;;;;;;;;110416;1256;35195;-34
2022/08/25 13:27:22;;;;;;;6.60;3.50;;;;;;;;;;110400;1256;33780;-34
2022/08/25 13:29:55;;;;;;;5.60;3.50;;;;;;;;;;110408;1253;34998;-34
2022/08/25 13:32:31;;;;;;;9.30;3.80;;;;;;;;;;110371;1256;34205;-34
2022/08/25 13:35:15;;;;;;;7.60;3.40;;;;;;;;;;110447;1256;35344;-34
2022/08/25 13:37:46;;;;;;;6.90;3.90;;;;;;;;;;110389;1256;33399;-33
2022/08/25 13:40:25;;;;;;;6.20;3.40;;;;;;;;;;110481;1256;35201;-33
2022/08/25 13:42:58;;;;;;;7.00;3.60;;;;;;;;;;110466;1247;34901;-33
2022/08/25 13:45:33;;;;;;;5.40;3.60;;;;;;;;;;110482;1255;35538;-33
2022/08/25 13:48:04;;;;;;;8.20;3.60;;;;;;;;;;110485;1256;35337;-33
2022/08/25 13:50:41;;;;;;;6.00;3.40;;;;;;;;;;110497;1248;33287;-33
2022/08/25 13:53:14;;;;;;;7.60;3.60;;;;;;;;;;110467;1255;34973;-34
2022/08/25 13:55:55;;;;;;;7.20;3.70;;;;;;;;;;110487;1247;35346;-35
2022/08/25 13:58:28;;;;;;;6.00;3.30;;;;;;;;;;110492;1255;35339;-35
2022/08/25 14:01:13;;;;;;;6.40;3.40;;;;;;;;;;110483;1255;35119;-35
2022/08/25 14:03:46;;;;;;;6.20;3.00;;;;;;;;;;110441;1248;34941;-33
2022/08/25 14:06:24;;;;;;;6.40;3.30;;;;;;;;;;110482;1247;34990;-34
2022/08/25 14:09:14;;;;;;;8.00;3.60;;;;;;;;;;110495;1247;35293;-35
2022/08/25 14:11:48;;;;;;;7.20;3.40;;;;;;;;;;110461;1255;34922;-34
2022/08/25 14:14:34;;;;;;;6.40;3.10;;;;;;;;;;110509;1247;34962;-34
2022/08/25 14:17:08;;;;;;;6.40;3.00;;;;;;;;;;110490;1255;35042;-34
2022/08/25 14:19:45;;;;;;;5.00;3.10;;;;;;;;;;110477;1247;34859;-34
2022/08/25 14:22:16;;;;;;;6.70;3.40;;;;;;;;;;110481;1255;33833;-34
2022/08/25 14:24:47;;;;;;;8.00;3.40;;;;;;;;;;110469;1256;33399;-34
2022/08/25 14:27:18;;;;;;;6.00;3.10;;;;;;;;;;110469;1256;34969;-34
2022/08/25 14:29:49;;;;;;;5.40;3.10;;;;;;;;;;110456;1256;34389;-35
2022/08/25 14:32:20;;;;;;;6.50;3.20;;;;;;;;;;110474;1256;35376;-34
2022/08/25 14:34:52;;;;;;;5.70;3.30;;;;;;;;;;110474;1256;33314;-34
2022/08/25 14:37:25;;;;;;;5.80;3.10;;;;;;;;;;110479;1255;34893;-33
2022/08/25 14:39:57;;;;;;;6.30;3.20;;;;;;;;;;110459;1255;35252;-34
2022/08/25 14:42:28;;;;;;;5.30;3.30;;;;;;;;;;110459;1255;35378;-34
2022/08/25 14:44:58;;;;;;;5.80;3.40;;;;;;;;;;110445;1247;34990;-34
2022/08/25 14:47:30;;;;;;;5.30;3.10;;;;;;;;;;110465;1255;35137;-34
2022/08/25 14:50:02;;;;;;;7.00;3.20;;;;;;;;;;110476;1255;35417;-34
2022/08/25 14:52:34;;;;;;;6.30;3.60;;;;;;;;;;110501;1255;33233;-34
2022/08/25 14:55:08;;;;;;;6.70;3.30;;;;;;;;;;110477;1247;35067;-34
2022/08/25 14:57:38;;;;;;;6.90;4.00;;;;;;;;;;110499;1247;35050;-34
2022/08/25 15:00:11;;;;;;;6.20;3.50;;;;;;;;;;110490;1256;35145;-34
2022/08/25 15:02:43;;;;;;;6.80;3.00;;;;;;;;;;110463;1255;35434;-35
2022/08/25 15:05:15;;;;;;;5.40;3.20;;;;;;;;;;110476;1256;34542;-35
2022/08/25 15:10:34;;;;;;;7.60;3.00;;;;;;;;;;110469;1250;34706;-34
2022/08/25 15:13:06;;;;;;;5.90;3.40;;;;;;;;;;110504;1247;34189;-32
2022/08/25 15:15:39;;;;;;;5.30;3.00;;;;;;;;;;110477;1256;34280;-32
2022/08/25 15:18:10;;;;;;;5.50;3.30;;;;;;;;;;110475;1255;34418;-32
2022/08/25 15:20:41;;;;;;;5.80;3.50;;;;;;;;;;110489;1255;35481;-33
2022/08/25 15:23:12;;;;;;;6.80;3.30;;;;;;;;;;110337;1247;33285;-30
2022/08/25 15:25:45;;;;;;;6.10;3.20;;;;;;;;;;110271;1256;34958;-30
2022/08/25 15:28:18;;;;;;;6.20;3.50;;;;;;;;;;110341;1256;35167;-30
2022/08/25 15:30:49;;;;;;;6.60;3.50;;;;;;;;;;110378;1248;35070;-31
2022/08/25 15:33:21;;;;;;;5.00;3.20;;;;;;;;;;110357;1256;35128;-33
2022/08/25 15:35:52;;;;;;;5.30;3.30;;;;;;;;;;110399;1256;34953;-33
2022/08/25 15:38:24;;;;;;;5.20;2.90;;;;;;;;;;109979;1256;539253;-33
2022/08/25 15:40:55;;;;;;;5.00;2.90;;;;;;;;;;110381;1256;33337;-34
2022/08/25 15:43:27;;;;;;;7.20;3.20;;;;;;;;;;110320;1256;34930;-33
2022/08/25 15:45:58;;;;;;;6.70;3.30;;;;;;;;;;110425;1250;34402;-33
2022/08/25 15:48:29;;;;;;;4.80;3.00;;;;;;;;;;110420;1256;34278;-33
2022/08/25 15:51:00;;;;;;;7.60;3.20;;;;;;;;;;110280;1250;33326;-31
2022/08/25 15:53:30;;;;;;;6.30;3.10;;;;;;;;;;110375;1256;35268;-32
2022/08/25 15:56:03;;;;;;;6.00;3.20;;;;;;;;;;110372;1256;34988;-32
2022/08/25 15:58:35;;;;;;;7.40;3.40;;;;;;;;;;110422;1247;35137;-33
2022/08/25 16:01:07;;;;;;;7.20;2.90;;;;;;;;;;110358;1247;35005;-35
2022/08/25 16:03:37;;;;;;;8.20;2.90;;;;;;;;;;110387;1254;34951;-34
2022/08/25 16:06:09;;;;;;;6.90;3.10;;;;;;;;;;110370;1256;35026;-36
2022/08/25 16:08:41;;;;;;;8.00;3.40;;;;;;;;;;110332;1247;34947;-33
2022/08/25 16:11:20;;;;;;;5.50;3.30;;;;;;;;;;110399;1256;35192;-33
2022/08/25 16:13:54;;;;;;;6.70;3.00;;;;;;;;;;110378;1248;34963;-32
2022/08/25 16:16:28;;;;;;;8.30;3.20;;;;;;;;;;110398;1247;35083;-32
2022/08/25 16:18:59;;;;;;;5.30;2.90;;;;;;;;;;110417;1256;35369;-31
2022/08/25 16:21:34;;;;;;;5.80;3.10;;;;;;;;;;110404;1256;35353;-31
2022/08/25 16:24:13;;;;;;;6.40;3.30;;;;;;;;;;110369;1256;34533;-32
2022/08/25 16:26:47;;;;;;;8.00;3.30;;;;;;;;;;110339;1250;34775;-33
2022/08/25 16:29:18;;;;;;;6.70;2.90;;;;;;;;;;110406;1256;34985;-32
2022/08/25 16:31:49;;;;;;;6.00;3.00;;;;;;;;;;110355;1247;34306;-33
2022/08/25 16:34:21;;;;;;;6.30;2.80;;;;;;;;;;110330;1255;34959;-32
2022/08/25 16:36:51;;;;;;;6.60;3.20;;;;;;;;;;110401;1256;34921;-32
2022/08/25 16:39:22;;;;;;;6.10;3.20;;;;;;;;;;110367;1248;35329;-31
2022/08/25 16:41:53;;;;;;;6.80;3.10;;;;;;;;;;110383;1247;34772;-31
2022/08/25 16:44:24;;;;;;;5.70;2.80;;;;;;;;;;110376;1256;34184;-31
2022/08/25 16:46:56;;;;;;;6.00;2.80;;;;;;;;;;110367;1255;35167;-30
2022/08/25 16:49:26;;;;;;;6.20;3.00;;;;;;;;;;110371;1256;33711;-31
2022/08/25 16:52:01;;;;;;;6.00;3.10;;;;;;;;;;110363;1256;34884;-31
2022/08/25 16:57:20;;;;;;;5.80;2.80;;;;;;;;;;110271;1256;35427;-31
2022/08/25 16:59:50;;;;;;;8.50;2.90;;;;;;;;;;110391;1256;33446;-31
2022/08/25 17:02:20;;;;;;;6.80;2.70;;;;;;;;;;110404;1250;33855;-31
2022/08/25 17:04:51;;;;;;;5.00;2.90;;;;;;;;;;110369;1247;35637;-31
2022/08/25 17:07:21;;;;;;;5.60;2.90;;;;;;;;;;110357;1247;33814;-31
2022/08/25 17:09:53;;;;;;;6.20;3.10;;;;;;;;;;110393;1247;33679;-30
2022/08/25 17:12:24;;;;;;;5.60;2.80;;;;;;;;;;110392;1256;35664;-31
2022/08/25 17:14:54;;;;;;;6.00;3.50;;;;;;;;;;110312;1255;35094;-33
2022/08/25 17:17:25;;;;;;;5.90;3.00;;;;;;;;;;110395;1250;34928;-32
2022/08/25 17:19:56;;;;;;;7.30;3.20;;;;;;;;;;110381;1247;34282;-29
2022/08/25 17:22:27;;;;;;;5.50;2.80;;;;;;;;;;110379;1250;35074;-32
2022/08/25 17:24:57;;;;;;;5.60;2.80;;;;;;;;;;110380;1256;35473;-33
2022/08/25 17:27:28;;;;;;;5.90;2.90;;;;;;;;;;110339;1247;33291;-33
2022/08/25 17:29:58;;;;;;;5.10;2.70;;;;;;;;;;110391;1247;35549;-33
2022/08/25 17:32:30;;;;;;;5.80;3.10;;;;;;;;;;110395;1255;35453;-32
2022/08/25 17:35:02;;;;;;;6.30;2.80;;;;;;;;;;110349;1248;33390;-31
2022/08/25 17:37:33;;;;;;;7.30;3.00;;;;;;;;;;110388;1256;35061;-33
2022/08/25 17:40:09;;;;;;;5.10;2.90;;;;;;;;;;110403;1250;34303;-32
2022/08/25 17:42:40;;;;;;;4.70;3.00;;;;;;;;;;110403;1247;34332;-32
2022/08/25 17:45:17;;;;;;;5.10;3.30;;;;;;;;;;110409;1248;34390;-33
2022/08/25 17:47:48;;;;;;;5.60;3.00;;;;;;;;;;110348;1247;34341;-32
2022/08/25 17:50:18;;;;;;;6.90;3.10;;;;;;;;;;110387;1256;35096;-32
2022/08/25 17:52:49;;;;;;;5.60;2.70;;;;;;;;;;110364;1255;34896;-34
2022/08/25 17:55:22;;;;;;;5.90;2.80;;;;;;;;;;110357;1250;34926;-31
2022/08/25 17:57:54;;;;;;;5.70;2.90;;;;;;;;;;110371;1247;34425;-32
2022/08/25 18:00:25;;;;;;;5.10;3.00;;;;;;;;;;110406;1256;33752;-30
2022/08/25 18:02:57;;;;;;;4.60;2.80;;;;;;;;;;110382;1256;34909;-30
2022/08/25 18:05:28;;;;;;;6.10;3.30;;;;;;;;;;110376;1247;34710;-31
2022/08/25 18:07:59;;;;;;;4.80;3.00;;;;;;;;;;110409;1256;35013;-31
2022/08/25 18:10:34;;;;;;;6.50;3.20;;;;;;;;;;110393;1248;36567;-32
2022/08/25 18:13:07;;;;;;;6.60;3.10;;;;;;;;;;110311;1256;33768;-31
2022/08/25 18:15:39;;;;;;;6.00;2.80;;;;;;;;;;110372;1256;35041;-31
2022/08/25 18:18:10;;;;;;;6.70;3.10;;;;;;;;;;110370;1256;35212;-31
2022/08/25 18:20:43;;;;;;;6.70;3.10;;;;;;;;;;110322;1256;35427;-32
2022/08/25 18:23:14;;;;;;;5.50;3.00;;;;;;;;;;110336;1249;35064;-32
2022/08/25 18:25:45;;;;;;;5.50;2.80;;;;;;;;;;110346;1255;34945;-33
2022/08/25 18:28:15;;;;;;;6.50;3.10;;;;;;;;;;110342;1256;35186;-33
2022/08/25 18:30:46;;;;;;;6.50;2.80;;;;;;;;;;110310;1250;35051;-31
2022/08/25 18:33:17;;;;;;;5.90;2.90;;;;;;;;;;110334;1250;34872;-32
2022/08/25 18:35:48;;;;;;;5.70;3.00;;;;;;;;;;110344;1248;33266;-32
2022/08/25 18:41:11;;;;;;;5.50;2.80;;;;;;;;;;110268;1256;34908;-31
2022/08/25 18:43:42;;;;;;;4.60;2.90;;;;;;;;;;110369;1256;35066;-31
2022/08/25 18:46:12;;;;;;;5.60;3.00;;;;;;;;;;110353;1250;35522;-32
2022/08/25 18:48:44;;;;;;;5.70;3.00;;;;;;;;;;110341;1250;34975;-30
2022/08/25 18:51:15;;;;;;;6.10;3.00;;;;;;;;;;110348;1256;34277;-32
2022/08/25 18:53:46;;;;;;;8.40;3.30;;;;;;;;;;110329;1256;35586;-31
2022/08/25 18:56:16;;;;;;;7.80;3.30;;;;;;;;;;110326;1247;34948;-31
2022/08/25 18:58:48;;;;;;;6.00;3.10;;;;;;;;;;110303;1247;33829;-31
2022/08/25 19:01:19;;;;;;;5.40;3.20;;;;;;;;;;110350;1247;33858;-34
2022/08/25 19:03:50;;;;;;;6.60;3.10;;;;;;;;;;110345;1256;35090;-30
2022/08/25 19:06:21;;;;;;;7.70;3.20;;;;;;;;;;110330;1256;35634;-30
2022/08/25 19:08:55;;;;;;;7.30;3.10;;;;;;;;;;110339;1247;35260;-30
2022/08/25 19:11:27;;;;;;;5.90;3.00;;;;;;;;;;110360;1256;35080;-30
2022/08/25 19:13:58;;;;;;;5.00;2.60;;;;;;;;;;110322;1247;35007;-30
2022/08/25 19:16:37;;;;;;;6.40;3.10;;;;;;;;;;110330;1256;35042;-30
2022/08/25 19:19:11;;;;;;;7.20;3.40;;;;;;;;;;110315;1256;34991;-29
2022/08/25 19:21:45;;;;;;;6.30;2.90;;;;;;;;;;110329;1256;35466;-30
2022/08/25 19:24:18;;;;;;;6.00;2.90;;;;;;;;;;110307;1250;34483;-33
2022/08/25 19:26:49;;;;;;;7.00;3.20;;;;;;;;;;110349;1247;35417;-32
2022/08/25 19:29:20;;;;;;;6.80;3.20;;;;;;;;;;110316;1256;35020;-32
2022/08/25 19:31:51;;;;;;;5.60;3.30;;;;;;;;;;110330;1256;34706;-33
2022/08/25 19:34:28;;;;;;;6.60;2.90;;;;;;;;;;110329;1251;35294;-32
2022/08/25 19:37:01;;;;;;;6.10;3.10;;;;;;;;;;110326;1250;34998;-32
2022/08/25 19:39:33;;;;;;;6.30;3.20;;;;;;;;;;110309;1256;33345;-32
2022/08/25 19:42:08;;;;;;;7.80;3.30;;;;;;;;;;110268;1256;34970;-33
2022/08/25 19:44:39;;;;;;;5.70;3.00;;;;;;;;;;110327;1256;34993;-33
2022/08/25 19:47:10;;;;;;;5.60;2.90;;;;;;;;;;110368;1247;35365;-32
2022/08/25 19:49:49;;;;;;;6.90;3.10;;;;;;;;;;110326;1247;33470;-32
2022/08/25 19:52:23;;;;;;;6.50;3.10;;;;;;;;;;110297;1250;34396;-33
2022/08/25 19:54:54;;;;;;;5.80;3.40;;;;;;;;;;110308;1256;35128;-32
2022/08/25 19:57:25;;;;;;;6.80;3.10;;;;;;;;;;110325;1256;35108;-33
2022/08/25 19:59:59;;;;;;;6.10;3.30;;;;;;;;;;110352;1250;33294;-33
2022/08/25 20:02:30;;;;;;;6.20;3.10;;;;;;;;;;110367;1247;34348;-33
2022/08/25 20:05:01;;;;;;;7.30;3.50;;;;;;;;;;110273;1250;35063;-34
2022/08/25 20:07:32;;;;;;;7.50;3.30;;;;;;;;;;110311;1256;35649;-32
2022/08/25 20:10:08;;;;;;;6.80;3.60;;;;;;;;;;110281;1256;34899;-32
2022/08/25 20:12:39;;;;;;;7.60;3.40;;;;;;;;;;110320;1247;35483;-32
2022/08/25 20:15:13;;;;;;;8.80;3.40;;;;;;;;;;110317;1247;35138;-33
2022/08/25 20:17:44;;;;;;;7.30;3.50;;;;;;;;;;110308;1247;35123;-33
2022/08/25 20:20:18;;;;;;;5.70;3.20;;;;;;;;;;110280;1248;34400;-33
2022/08/25 20:22:49;;;;;;;7.50;3.30;;;;;;;;;;110297;1256;35080;-33
2022/08/25 20:25:23;;;;;;;6.30;3.50;;;;;;;;;;110278;1256;35408;-33
2022/08/25 20:27:56;;;;;;;8.10;3.30;;;;;;;;;;110317;1247;35417;-32
2022/08/25 20:30:29;;;;;;;5.90;3.40;;;;;;;;;;110272;1256;34989;-33
2022/08/25 20:33:00;;;;;;;6.80;3.30;;;;;;;;;;110248;1256;34978;-32
2022/08/25 20:35:31;;;;;;;7.50;3.70;;;;;;;;;;110309;1256;35356;-32
2022/08/25 20:38:04;;;;;;;6.00;3.40;;;;;;;;;;110345;1256;33399;-33
2022/08/25 20:40:34;;;;;;;;;;;;;;;;;;110334;1247;33536;-32
2022/08/25 20:43:08;;;;;;;6.60;3.60;;;;;;;;;;110358;1256;35022;-32
2022/08/25 20:45:41;;;;;;;6.50;3.60;;;;;;;;;;110393;1256;35015;-33
2022/08/25 20:48:14;;;;;;;5.30;3.40;;;;;;;;;;110337;1256;35168;-32
2022/08/25 20:50:45;;;;;;;;;;;;;;;;;;110356;1250;35078;-32
2022/08/25 20:53:16;;;;;;;6.20;3.60;;;;;;;;;;110318;1250;35544;-32
2022/08/25 20:55:51;;;;;;;8.10;3.80;;;;;;;;;;110348;1250;33745;-31
2022/08/25 20:58:21;;;;;;;7.00;3.90;;;;;;;;;;110333;1250;35997;-33
2022/08/25 21:00:52;;;;;;;6.50;3.60;;;;;;;;;;110322;1256;34371;-33
2022/08/25 21:03:22;;;;;;;7.50;3.60;;;;;;;;;;110311;1256;35547;-33
2022/08/25 21:05:53;;;;;;;7.30;3.50;;;;;;;;;;110327;1250;35150;-33
2022/08/25 21:08:24;;;;;;;6.00;3.90;;;;;;;;;;110300;1247;35114;-32
2022/08/25 21:10:54;;;;;;;8.30;4.20;;;;;;;;;;110370;1256;34943;-32
2022/08/25 21:13:25;;;;;;;6.30;3.80;;;;;;;;;;110318;1255;33326;-32
2022/08/25 21:15:56;;;;;;;6.60;3.20;;;;;;;;;;110353;1256;34952;-32
2022/08/25 21:18:29;;;;;;;7.70;3.50;;;;;;;;;;110369;1256;35488;-31
2022/08/25 21:21:04;;;;;;;5.70;3.20;;;;;;;;;;110279;1250;35485;-34
2022/08/25 21:23:35;;;;;;;7.80;3.80;;;;;;;;;;110306;1256;35094;-34
2022/08/25 21:26:06;;;;;;;7.10;3.60;;;;;;;;;;110340;1256;35008;-32
2022/08/25 21:28:37;;;;;;;8.50;4.10;;;;;;;;;;110339;1256;35200;-30
2022/08/25 21:31:09;;;;;;;6.70;3.90;;;;;;;;;;110324;1256;35631;-32
2022/08/25 21:33:40;;;;;;;9.10;3.90;;;;;;;;;;110325;1247;35029;-32
2022/08/25 21:36:13;;;;;;;8.50;3.40;;;;;;;;;;110347;1254;34276;-34
2022/08/25 21:38:43;;;;;;;7.60;3.60;;;;;;;;;;110330;1256;35449;-33
2022/08/25 21:41:16;;;;;;;6.90;3.70;;;;;;;;;;110332;1250;34581;-33
2022/08/25 21:43:48;;;;;;;6.90;3.90;;;;;;;;;;110329;1250;34749;-32
2022/08/25 21:46:24;;;;;;;5.20;3.50;;;;;;;;;;110308;1256;35104;-33
2022/08/25 21:48:54;;;;;;;7.20;3.70;;;;;;;;;;110349;1256;34912;-32
2022/08/25 21:51:27;;;;;;;8.20;3.60;;;;;;;;;;110309;1256;33196;-32
2022/08/25 21:54:09;;;;;;;8.10;4.40;;;;;;;;;;110358;1247;34520;-32
2022/08/25 21:56:49;;;;;;;6.70;3.70;;;;;;;;;;110374;1249;35036;-31
2022/08/25 21:59:23;;;;;;;7.30;4.10;;;;;;;;;;110325;1250;33243;-32
2022/08/25 22:01:57;;;;;;;7.30;4.00;;;;;;;;;;110372;1256;34263;-33
2022/08/25 22:04:28;;;;;;;6.40;3.50;;;;;;;;;;110332;1255;35129;-32
2022/08/25 22:07:00;;;;;;;7.40;3.60;;;;;;;;;;110297;1250;35523;-31
2022/08/25 22:09:32;;;;;;;6.20;3.90;;;;;;;;;;110325;1247;33899;-32
2022/08/25 22:12:08;;;;;;;6.30;3.60;;;;;;;;;;110353;1256;35574;-32
2022/08/25 22:14:40;;;;;;;6.60;3.90;;;;;;;;;;110323;1255;35043;-31
2022/08/25 22:17:11;;;;;;;8.20;3.60;;;;;;;;;;110358;1256;33364;-32
2022/08/25 22:19:44;;;;;;;8.40;3.60;;;;;;;;;;110363;1249;35538;-32
2022/08/25 22:22:15;;;;;;;7.30;3.70;;;;;;;;;;110348;1256;36160;-30
2022/08/25 22:24:46;;;;;;;7.40;4.10;;;;;;;;;;110328;1250;34981;-29
2022/08/25 22:27:20;;;;;;;6.20;3.20;;;;;;;;;;110332;1251;33752;-32
2022/08/25 22:29:52;;;;;;;8.10;3.40;;;;;;;;;;110341;1256;34937;-32
2022/08/25 22:32:23;;;;;;;7.90;3.70;;;;;;;;;;110324;1256;33325;-32
2022/08/25 22:34:55;;;;;;;6.10;3.90;;;;;;;;;;110194;1256;33309;-32
2022/08/25 22:37:28;;;;;;;6.30;3.90;;;;;;;;;;110318;1250;33474;-32
2022/08/25 22:39:58;;;;;;;7.10;3.90;;;;;;;;;;110346;1255;35184;-32
2022/08/25 22:42:30;;;;;;;6.70;4.00;;;;;;;;;;110320;1256;34981;-31
2022/08/25 22:45:01;;;;;;;7.40;3.90;;;;;;;;;;110345;1247;34335;-31
2022/08/25 22:47:34;;;;;;;6.10;3.50;;;;;;;;;;110368;1256;33293;-31
2022/08/25 22:50:09;;;;;;;9.20;3.60;;;;;;;;;;110348;1254;35596;-32